Portada
METAR-TAF:

METAR-TAF

Aeroports :

Pointe-Noire, Congo

latitud: 04-49S, longitud: 011-54E, altitud: 17 m

Observació

L'informe es va fer fa 1 hora i 16 minuts, a les 14:00 UTC
Vent 11 kt del Sud
Temperatura 29°C
Humitat 74%
Pressió 1009 hPa
Visibilitat 10 km o més
Núvols disperses a una alçada de 1500 ft
Núvols disperses a una alçada de 2600 ft

METAR: FCPP 091400Z 19011KT 9999 SCT015 SCT026 29/24 Q1009 NOSIG

Hora: 16:16 (15:16 UTC)

Pronòstic

L'informe es va fer fa 4 hores i 16 minuts, a les 11:00 UTC
Pronòstic vàlid del 09 a les 12 UTC al 10 a les 12 UTC
Vent 8 kt del Sud
Visibilitat 10 km o més
Núvols disperses a una alçada de 1400 ft
Cel ennuvolat a una alçada de 2600 ft
Probabilitat 30%
l' 09 a les 16 UTC al 09 a les 19 UTC
Núvols disperses a una alçada de 1600 ft
Escasses núvols a una alçada de 3000 ft, Cumulonimbus.

TAF: FCPP 091100Z 0912/1012 19008KT 9999 SCT014 BKN026 PROB30 0916/0919 SCT016 FEW030CB

Observacions i pronòstics meteorològics de més de 4000 aeroports (METAR i TAF).

Les estacions disponibles són els punts grocs i vermells al mapa.

Posi el ratolí al punt desitjat per veure el nom de l'estació.

Feu clic per veure les observacions i els pronòstics meteorològics.

Per canviar el mapa: feu clic els botons verds amb una creu de color negre per apropar; al botó verd amb un guió per allunyar la imatge; o en les fletxes verdes per a mapes adjacents.


METAR-TAF: